Orbital elements of METEOR 2-8 DEB
| Launched | 24 March 1982 |
| Flight ended | – |
| Launch site | Plesetsk Missile and Space Complex, Russia |
| Owner | Commonwealth of Independent States (former USSR) |
| NORAD ID | 36861 |
| Date fetched |
Epoch osculation |
Inc. [°] |
Ecc. | RA asc node [hr] |
Arg Peri. [°] |
Mean anom [°] |
Mean motion [rev/day] |
Abs. mag |
| Date fetched |
Epoch osculation |
Inc. [°] |
Ecc. | RA asc node [hr] |
Arg Peri. [°] |
Mean anom [°] |
Mean motion [rev/day] |
Abs. mag |
| 2026 May 06 17:57 | 2026 May 03 12:46:01 | 82.5033 | 0.00330 | 14.8335 | 185.1682 | 174.9169 | 14.30102 | – |
| 2026 May 05 17:57 | 2026 May 03 12:46:01 | 82.5033 | 0.00330 | 14.8335 | 185.1682 | 174.9169 | 14.30102 | – |
| 2026 May 04 17:57 | 2026 Apr 26 01:05:13 | 82.5014 | 0.00317 | 15.2638 | 205.3142 | 174.9169 | 14.30102 | – |
| 2026 May 03 17:57 | 2026 Apr 26 01:05:13 | 82.5014 | 0.00317 | 15.2638 | 205.3142 | 174.9169 | 14.30102 | – |
| 2026 May 02 17:57 | 2026 Apr 26 01:05:13 | 82.5014 | 0.00317 | 15.2638 | 205.3142 | 174.9169 | 14.30102 | – |
| 2026 May 01 17:56 | 2026 Apr 26 01:05:13 | 82.5014 | 0.00317 | 15.2638 | 205.3142 | 174.9169 | 14.30102 | – |
| 2026 Apr 30 17:56 | 2026 Apr 26 01:05:13 | 82.5014 | 0.00317 | 15.2638 | 205.3142 | 174.9169 | 14.30102 | – |
| 2026 Apr 29 17:57 | 2026 Apr 23 14:18:37 | 82.5021 | 0.00311 | 15.4045 | 212.0343 | 174.9169 | 14.30102 | – |
| 2026 Apr 28 17:56 | 2026 Apr 23 14:18:37 | 82.5021 | 0.00311 | 15.4045 | 212.0343 | 174.9169 | 14.30102 | – |
| 2026 Apr 27 17:58 | 2026 Apr 23 14:18:37 | 82.5021 | 0.00311 | 15.4045 | 212.0343 | 174.9169 | 14.30102 | – |
| 2026 Apr 26 17:58 | 2026 Apr 23 14:18:37 | 82.5021 | 0.00311 | 15.4045 | 212.0343 | 174.9169 | 14.30102 | – |
| 2026 Apr 25 17:58 | 2026 Apr 23 14:18:37 | 82.5021 | 0.00311 | 15.4045 | 212.0343 | 174.9169 | 14.30102 | – |
| 2026 Apr 24 17:59 | 2026 Apr 23 14:18:37 | 82.5021 | 0.00311 | 15.4045 | 212.0343 | 174.9169 | 14.30102 | – |
| 2026 Apr 23 17:57 | 2026 Apr 18 15:04:27 | 82.5023 | 0.00300 | 15.6900 | 226.2327 | 174.9169 | 14.30102 | – |
| 2026 Apr 22 17:57 | 2026 Apr 18 15:04:27 | 82.5023 | 0.00300 | 15.6900 | 226.2327 | 174.9169 | 14.30102 | – |
| 2026 Apr 21 17:57 | 2026 Apr 18 15:04:27 | 82.5023 | 0.00300 | 15.6900 | 226.2327 | 174.9169 | 14.30102 | – |
| 2026 Apr 20 17:57 | 2026 Apr 18 15:04:27 | 82.5023 | 0.00300 | 15.6900 | 226.2327 | 174.9169 | 14.30102 | – |
| 2026 Apr 19 17:58 | 2026 Apr 18 15:04:27 | 82.5023 | 0.00300 | 15.6900 | 226.2327 | 174.9169 | 14.30102 | – |
| 2026 Apr 18 17:56 | 2026 Apr 09 16:06:14 | 82.5019 | 0.00279 | 16.2046 | 253.2365 | 174.9169 | 14.30102 | – |
| 2026 Apr 16 17:57 | 2026 Apr 09 16:06:14 | 82.5019 | 0.00279 | 16.2046 | 253.2365 | 174.9169 | 14.30102 | – |
| 2026 Apr 14 17:57 | 2026 Apr 09 16:06:14 | 82.5019 | 0.00279 | 16.2046 | 253.2365 | 174.9169 | 14.30102 | – |
| 2026 Apr 13 17:57 | 2026 Apr 09 16:06:14 | 82.5019 | 0.00279 | 16.2046 | 253.2365 | 174.9169 | 14.30102 | – |
| 2026 Apr 12 17:57 | 2026 Apr 08 03:09:17 | 82.5011 | 0.00274 | 16.2930 | 258.1340 | 174.9169 | 14.30102 | – |
| 2026 Apr 11 17:57 | 2026 Apr 08 03:09:17 | 82.5011 | 0.00274 | 16.2930 | 258.1340 | 174.9169 | 14.30102 | – |
| 2026 Apr 10 17:58 | 2026 Apr 08 03:09:17 | 82.5011 | 0.00274 | 16.2930 | 258.1340 | 174.9169 | 14.30102 | – |
| 2026 Apr 09 18:01 | 2026 Apr 08 03:09:17 | 82.5011 | 0.00274 | 16.2930 | 258.1340 | 174.9169 | 14.30102 | – |